Time;durP1;ratioP1;P1;durP2;ratioP2;P2;SDS_P1;SDS_P2;PMS_P1;PMS_P2;Temp;Humidity;BMP_temperature;BMP_pressure;BME280_temperature;BME280_humidity;BME280_pressure;Samples;Min_cycle;Max_cycle;Signal;HPM_P1;HPM_P2
2021/06/27 00:00:17;;;;;;;12.05;10.75;;;20.30;70.10;;;;;;2073831;28;20117;-84
2021/06/27 00:01:21;;;;;;;14.60;11.70;;;20.30;70.20;;;;;;2073604;28;20034;-83
2021/06/27 00:02:22;;;;;;;13.20;11.30;;;20.30;70.30;;;;;;2082937;28;20063;-83
2021/06/27 00:03:22;;;;;;;12.55;10.60;;;20.30;70.30;;;;;;2073222;28;20121;-84
2021/06/27 00:04:23;;;;;;;13.88;11.10;;;20.30;70.40;;;;;;2066138;28;20065;-84
2021/06/27 00:05:27;;;;;;;13.50;10.98;;;20.30;70.50;;;;;;2077291;28;20053;-82
2021/06/27 00:06:28;;;;;;;13.00;10.88;;;20.30;70.60;;;;;;2092775;28;20017;-83
2021/06/27 00:07:28;;;;;;;13.38;11.10;;;20.30;70.60;;;;;;2084444;28;20021;-84
2021/06/27 00:08:29;;;;;;;13.05;11.27;;;20.20;70.70;;;;;;2084559;28;20026;-82
2021/06/27 00:09:30;;;;;;;12.20;10.90;;;20.20;70.70;;;;;;2078610;28;20011;-84
2021/06/27 00:10:37;;;;;;;12.57;11.10;;;20.20;70.80;;;;;;2080943;28;20045;-84
2021/06/27 00:11:38;;;;;;;13.02;10.63;;;20.20;70.90;;;;;;2081523;28;20023;-83
2021/06/27 00:12:39;;;;;;;12.43;10.55;;;20.10;70.90;;;;;;2081472;28;20037;-83
2021/06/27 00:13:42;;;;;;;12.52;10.68;;;20.10;71.00;;;;;;2081600;28;20072;-83
2021/06/27 00:14:43;;;;;;;12.43;10.50;;;20.10;71.00;;;;;;2075010;28;20040;-83
2021/06/27 00:15:48;;;;;;;12.05;10.68;;;20.10;71.10;;;;;;2068822;28;20030;-83
2021/06/27 00:16:53;;;;;;;13.73;11.88;;;20.10;71.80;;;;;;2082097;28;20075;-83
2021/06/27 00:17:54;;;;;;;12.88;11.15;;;20.10;71.30;;;;;;2065629;28;20101;-84
2021/06/27 00:18:56;;;;;;;15.90;11.80;;;20.00;71.30;;;;;;2063930;28;20421;-84
2021/06/27 00:19:56;;;;;;;13.05;11.65;;;20.10;71.40;;;;;;2072562;28;20109;-83
2021/06/27 00:21:00;;;;;;;12.35;10.85;;;20.00;71.40;;;;;;2057265;28;20035;-84
2021/06/27 00:22:01;;;;;;;13.77;11.63;;;20.00;71.50;;;;;;2060360;28;20157;-83
2021/06/27 00:23:02;;;;;;;13.02;11.00;;;20.00;71.60;;;;;;2066533;28;20116;-84
2021/06/27 00:24:03;;;;;;;12.20;10.50;;;20.00;71.70;;;;;;2057823;28;20038;-84
2021/06/27 00:25:07;;;;;;;13.15;10.98;;;20.00;71.70;;;;;;2065823;28;20065;-84
2021/06/27 00:26:10;;;;;;;13.00;10.93;;;19.90;71.70;;;;;;2073770;28;20033;-84
2021/06/27 00:27:11;;;;;;;13.68;11.60;;;19.90;71.80;;;;;;2086914;28;20471;-84
2021/06/27 00:28:12;;;;;;;15.13;13.05;;;19.90;71.80;;;;;;2073603;28;20049;-84
2021/06/27 00:29:13;;;;;;;13.65;11.73;;;19.90;72.60;;;;;;2077829;28;20144;-83
2021/06/27 00:30:16;;;;;;;14.07;12.23;;;19.90;71.90;;;;;;2081606;28;20119;-84
2021/06/27 00:31:17;;;;;;;13.90;12.27;;;19.90;71.90;;;;;;2074344;28;20037;-84
2021/06/27 00:32:18;;;;;;;12.57;11.10;;;19.90;72.00;;;;;;2072635;28;20030;-83
2021/06/27 00:33:19;;;;;;;13.00;11.27;;;19.90;72.00;;;;;;2073413;28;20061;-83
2021/06/27 00:34:20;;;;;;;13.50;11.57;;;19.90;72.00;;;;;;2081559;28;20033;-84
2021/06/27 00:35:24;;;;;;;13.30;11.73;;;19.90;72.00;;;;;;2065153;28;20034;-84
2021/06/27 00:36:25;;;;;;;15.23;12.05;;;19.90;72.00;;;;;;2074316;28;20506;-84
2021/06/27 00:37:27;;;;;;;13.50;12.10;;;19.90;72.00;;;;;;2073360;28;20033;-83
2021/06/27 00:38:28;;;;;;;12.82;11.13;;;19.90;72.10;;;;;;2073929;28;20025;-84
2021/06/27 00:39:28;;;;;;;13.35;11.38;;;19.90;72.10;;;;;;2073540;28;20165;-83
2021/06/27 00:40:30;;;;;;;12.88;10.77;;;19.90;72.10;;;;;;2072865;28;20038;-83
2021/06/27 00:41:31;;;;;;;13.40;11.60;;;19.90;72.10;;;;;;2064885;28;20197;-83
2021/06/27 00:42:31;;;;;;;13.35;11.40;;;19.90;72.20;;;;;;2064518;28;20045;-83
2021/06/27 00:43:33;;;;;;;12.95;11.38;;;19.90;72.20;;;;;;2066397;28;20536;-84
2021/06/27 00:44:34;;;;;;;14.38;11.82;;;19.90;72.20;;;;;;2069047;28;20430;-84
2021/06/27 00:45:36;;;;;;;12.25;10.85;;;19.90;72.20;;;;;;2065499;28;20060;-84
2021/06/27 00:46:37;;;;;;;16.20;12.25;;;19.90;72.20;;;;;;2074192;28;20037;-84
2021/06/27 00:47:39;;;;;;;13.88;11.35;;;19.90;72.90;;;;;;2065130;28;20480;-84
2021/06/27 00:48:40;;;;;;;13.20;10.68;;;19.90;72.30;;;;;;2064403;28;20096;-84
2021/06/27 00:49:41;;;;;;;11.32;9.98;;;19.90;72.30;;;;;;2080683;28;20583;-84
2021/06/27 00:50:47;;;;;;;12.40;11.10;;;19.90;72.30;;;;;;2064565;28;20061;-84
2021/06/27 00:51:48;;;;;;;12.18;10.88;;;19.90;72.30;;;;;;2066091;28;20031;-84
2021/06/27 00:52:50;;;;;;;12.35;10.82;;;19.90;72.30;;;;;;2081194;28;20091;-84
2021/06/27 00:53:52;;;;;;;12.07;10.40;;;19.90;72.40;;;;;;2080938;28;20025;-83
2021/06/27 00:54:53;;;;;;;12.07;10.43;;;19.90;72.40;;;;;;2073752;28;20215;-83
2021/06/27 00:55:54;;;;;;;13.80;11.27;;;19.90;72.40;;;;;;2081231;28;20021;-84
2021/06/27 00:56:55;;;;;;;13.40;11.60;;;19.90;72.50;;;;;;2088217;28;20021;-84
2021/06/27 00:57:56;;;;;;;12.13;10.73;;;19.90;72.50;;;;;;2073300;28;20022;-83
2021/06/27 00:58:56;;;;;;;13.55;11.20;;;19.90;72.50;;;;;;2073024;28;20420;-84
2021/06/27 00:59:57;;;;;;;12.20;10.23;;;19.90;72.60;;;;;;2065297;28;20057;-84
2021/06/27 01:00:59;;;;;;;12.40;10.40;;;19.90;72.60;;;;;;2057665;28;20030;-83
2021/06/27 01:02:00;;;;;;;12.05;10.55;;;19.90;72.60;;;;;;2071904;28;20511;-84
2021/06/27 01:03:01;;;;;;;13.75;11.40;;;19.90;72.60;;;;;;2072074;28;20026;-84
2021/06/27 01:04:01;;;;;;;12.52;10.38;;;19.90;72.70;;;;;;2056348;28;20031;-84
2021/06/27 01:05:06;;;;;;;12.55;10.40;;;19.90;72.80;;;;;;2064306;28;20026;-83
2021/06/27 01:06:06;;;;;;;12.93;11.32;;;19.80;72.70;;;;;;2065764;28;20389;-84
2021/06/27 01:07:08;;;;;;;14.02;11.25;;;19.80;72.80;;;;;;2065079;28;20065;-83
2021/06/27 01:08:09;;;;;;;13.80;11.35;;;19.80;72.80;;;;;;2073209;28;20026;-84
2021/06/27 01:09:09;;;;;;;12.48;10.85;;;19.80;72.90;;;;;;2065138;28;20030;-83
2021/06/27 01:10:11;;;;;;;14.73;12.40;;;19.90;73.00;;;;;;2065216;28;20022;-84
2021/06/27 01:11:12;;;;;;;15.07;12.88;;;19.90;73.00;;;;;;2062626;28;20030;-83
2021/06/27 01:12:13;;;;;;;14.80;12.30;;;19.80;73.00;;;;;;2065061;28;20027;-83
2021/06/27 01:13:19;;;;;;;13.80;12.27;;;19.80;73.10;;;;;;2065136;28;20081;-84
2021/06/27 01:14:20;;;;;;;14.70;12.30;;;19.80;73.20;;;;;;2066078;28;20022;-84
2021/06/27 01:15:22;;;;;;;16.20;13.57;;;19.80;73.20;;;;;;2065374;28;20118;-84
2021/06/27 01:16:23;;;;;;;16.20;11.98;;;19.80;73.30;;;;;;2073606;28;20022;-84
2021/06/27 01:17:23;;;;;;;13.85;11.88;;;19.80;73.30;;;;;;2073248;28;20495;-84
2021/06/27 01:18:24;;;;;;;13.95;11.50;;;19.80;73.30;;;;;;2065016;28;20041;-84
2021/06/27 01:19:31;;;;;;;17.13;13.88;;;19.80;73.40;;;;;;2065070;28;20105;-83
2021/06/27 01:20:35;;;;;;;14.50;12.00;;;19.80;73.50;;;;;;2082032;28;20017;-84
2021/06/27 01:21:36;;;;;;;14.43;12.40;;;19.80;73.50;;;;;;2073074;28;20435;-84
2021/06/27 01:22:38;;;;;;;16.20;12.88;;;19.80;73.60;;;;;;2061145;28;20053;-83
2021/06/27 01:23:39;;;;;;;14.48;12.98;;;19.80;73.60;;;;;;2066998;28;20037;-84
2021/06/27 01:24:40;;;;;;;17.00;13.80;;;19.70;73.60;;;;;;2072905;28;20113;-83
2021/06/27 01:25:44;;;;;;;15.40;13.07;;;19.80;73.80;;;;;;2067522;28;20077;-83
2021/06/27 01:26:44;;;;;;;15.98;13.65;;;19.70;73.90;;;;;;2081269;28;20030;-83
2021/06/27 01:27:45;;;;;;;17.40;14.63;;;19.70;73.90;;;;;;2064934;28;20539;-83
2021/06/27 01:28:46;;;;;;;15.65;13.45;;;19.70;74.10;;;;;;2073123;28;20041;-83
2021/06/27 01:29:46;;;;;;;15.57;12.90;;;19.70;74.20;;;;;;2064947;28;20034;-83
2021/06/27 01:30:48;;;;;;;17.25;14.60;;;19.70;74.30;;;;;;2056377;28;20035;-83
2021/06/27 01:31:49;;;;;;;17.08;15.02;;;19.70;74.40;;;;;;2079606;28;20037;-83
2021/06/27 01:32:51;;;;;;;19.60;16.08;;;19.70;74.60;;;;;;2065283;28;20026;-83
2021/06/27 01:33:54;;;;;;;19.50;15.20;;;19.60;74.70;;;;;;2065385;28;20041;-83
2021/06/27 01:34:54;;;;;;;20.08;16.40;;;19.60;74.80;;;;;;2089387;28;20450;-83
2021/06/27 01:35:55;;;;;;;16.67;14.52;;;19.60;74.90;;;;;;2072607;28;20061;-83
2021/06/27 01:36:55;;;;;;;16.92;14.00;;;19.60;75.00;;;;;;2064599;28;20027;-83
2021/06/27 01:37:57;;;;;;;19.17;15.95;;;19.50;75.00;;;;;;2071464;28;20033;-83
2021/06/27 01:38:58;;;;;;;17.98;14.77;;;19.50;75.20;;;;;;2073031;28;20018;-83
2021/06/27 01:39:59;;;;;;;16.25;14.43;;;19.50;75.30;;;;;;2066376;28;20208;-83
2021/06/27 01:40:59;;;;;;;16.35;14.02;;;19.50;76.00;;;;;;2061761;28;20027;-83
2021/06/27 01:42:00;;;;;;;16.27;13.65;;;19.50;75.40;;;;;;2065898;28;20037;-83
2021/06/27 01:43:17;;;;;;;17.80;14.68;;;19.50;75.50;;;;;;2066215;28;20022;-83
2021/06/27 01:44:18;;;;;;;16.30;13.85;;;19.50;75.60;;;;;;2077531;28;20069;-83
2021/06/27 01:45:25;;;;;;;16.70;14.35;;;19.40;75.60;;;;;;2064905;28;20057;-81
2021/06/27 01:46:26;;;;;;;16.48;13.07;;;19.40;75.70;;;;;;2065774;28;20492;-83
2021/06/27 01:47:28;;;;;;;16.63;14.07;;;19.40;75.70;;;;;;2064741;28;20072;-83
2021/06/27 01:48:30;;;;;;;17.70;15.30;;;19.40;75.80;;;;;;2070518;28;20462;-83
2021/06/27 01:49:31;;;;;;;17.60;14.45;;;19.40;75.90;;;;;;2081341;28;20582;-83
2021/06/27 01:50:32;;;;;;;16.10;14.00;;;19.30;75.80;;;;;;2078484;28;20085;-83
2021/06/27 01:51:33;;;;;;;14.88;12.55;;;19.40;76.00;;;;;;2081094;28;20085;-83
2021/06/27 01:52:35;;;;;;;15.65;13.55;;;19.40;76.00;;;;;;2072421;28;20092;-83
2021/06/27 01:53:37;;;;;;;15.75;13.50;;;19.30;76.00;;;;;;2071822;28;20105;-83
2021/06/27 01:54:38;;;;;;;15.15;13.48;;;19.30;76.00;;;;;;2072747;28;20022;-84
2021/06/27 01:55:40;;;;;;;15.57;13.77;;;19.40;76.10;;;;;;2065074;28;20042;-83
2021/06/27 01:56:41;;;;;;;18.88;13.98;;;19.30;76.10;;;;;;2072674;28;20460;-83
2021/06/27 01:57:42;;;;;;;17.25;14.30;;;19.40;76.80;;;;;;2068210;28;20038;-83
2021/06/27 01:58:50;;;;;;;16.83;14.23;;;19.40;76.20;;;;;;2072772;28;20142;-83
2021/06/27 01:59:51;;;;;;;17.95;13.95;;;19.30;76.20;;;;;;2078293;28;20032;-83
2021/06/27 02:00:52;;;;;;;15.77;13.70;;;19.30;76.20;;;;;;2066043;28;20022;-83
2021/06/27 02:01:52;;;;;;;15.88;13.32;;;19.40;76.30;;;;;;2064739;28;20583;-83
2021/06/27 02:02:54;;;;;;;16.35;13.07;;;19.30;76.30;;;;;;2081022;28;20026;-83
2021/06/27 02:03:55;;;;;;;17.20;14.32;;;19.30;76.30;;;;;;2081118;28;20129;-83
2021/06/27 02:04:56;;;;;;;15.32;13.57;;;19.40;76.40;;;;;;2079313;28;20030;-83
2021/06/27 02:05:56;;;;;;;14.63;12.35;;;19.30;76.30;;;;;;2080976;28;20377;-83
2021/06/27 02:07:00;;;;;;;17.33;13.80;;;19.30;76.30;;;;;;2078816;28;20053;-84
2021/06/27 02:08:00;;;;;;;19.60;15.88;;;19.30;76.40;;;;;;2081063;28;20056;-83
2021/06/27 02:09:06;;;;;;;19.65;16.63;;;19.30;76.50;;;;;;2080054;28;20022;-83
2021/06/27 02:10:15;;;;;;;17.92;14.55;;;19.30;76.60;;;;;;2065222;28;20122;-83
2021/06/27 02:11:19;;;;;;;17.52;13.48;;;19.30;76.60;;;;;;2065709;28;20034;-83
2021/06/27 02:12:20;;;;;;;19.27;15.10;;;19.30;76.60;;;;;;2071534;28;20121;-83
2021/06/27 02:13:21;;;;;;;17.73;14.65;;;19.30;76.80;;;;;;2064101;28;20392;-83
2021/06/27 02:14:21;;;;;;;19.05;15.35;;;19.30;76.80;;;;;;2064145;28;20037;-83
2021/06/27 02:15:23;;;;;;;18.90;15.43;;;19.20;76.80;;;;;;2071660;28;20033;-83
2021/06/27 02:16:25;;;;;;;17.75;13.93;;;19.20;76.90;;;;;;2056671;28;20023;-83
2021/06/27 02:17:25;;;;;;;16.77;14.48;;;19.20;77.00;;;;;;2076650;28;20369;-83
2021/06/27 02:18:29;;;;;;;19.67;16.02;;;19.20;77.00;;;;;;2080939;28;20048;-83
2021/06/27 02:19:31;;;;;;;17.45;15.00;;;19.20;77.20;;;;;;2081387;28;20021;-82
2021/06/27 02:20:32;;;;;;;17.23;14.75;;;19.20;77.20;;;;;;2070865;28;20484;-83
2021/06/27 02:21:36;;;;;;;18.17;14.85;;;19.20;77.90;;;;;;2062960;28;21976;-83
2021/06/27 02:22:37;;;;;;;16.85;14.02;;;19.20;77.30;;;;;;2072976;28;20022;-83
2021/06/27 02:23:39;;;;;;;19.10;15.80;;;19.20;77.40;;;;;;2081342;28;20407;-83
2021/06/27 02:24:39;;;;;;;18.10;15.07;;;19.20;78.10;;;;;;2080825;28;20029;-83
2021/06/27 02:25:40;;;;;;;20.13;15.88;;;19.20;77.50;;;;;;2064959;28;20027;-83
2021/06/27 02:26:41;;;;;;;16.92;14.45;;;19.10;77.50;;;;;;2064619;28;20065;-84
2021/06/27 02:27:42;;;;;;;17.92;15.13;;;19.10;77.60;;;;;;2073442;28;20029;-84
2021/06/27 02:28:43;;;;;;;19.77;15.70;;;19.10;77.60;;;;;;2072967;28;20022;-83
2021/06/27 02:29:44;;;;;;;15.77;13.88;;;19.10;77.70;;;;;;2072993;28;20034;-83
2021/06/27 02:30:45;;;;;;;18.33;14.75;;;19.10;77.70;;;;;;2072418;28;20516;-83
2021/06/27 02:31:52;;;;;;;17.48;15.15;;;19.10;77.70;;;;;;2072624;28;20041;-83
2021/06/27 02:32:52;;;;;;;16.92;14.20;;;19.10;77.70;;;;;;2071989;28;20034;-83
2021/06/27 02:33:53;;;;;;;18.48;14.85;;;19.10;77.70;;;;;;2073525;28;20415;-83
2021/06/27 02:34:54;;;;;;;19.77;16.05;;;19.10;77.80;;;;;;2081061;28;20044;-84
2021/06/27 02:35:56;;;;;;;19.00;15.68;;;19.10;77.80;;;;;;2081068;28;20025;-84
2021/06/27 02:36:57;;;;;;;19.42;16.05;;;19.10;77.80;;;;;;2080698;28;20029;-84
2021/06/27 02:37:58;;;;;;;20.58;16.35;;;19.10;77.80;;;;;;2072913;28;20030;-84
2021/06/27 02:38:59;;;;;;;19.52;16.17;;;19.10;77.80;;;;;;2073316;28;20121;-84
2021/06/27 02:40:00;;;;;;;19.65;15.35;;;19.10;77.80;;;;;;2064253;28;20452;-84
2021/06/27 02:41:02;;;;;;;19.52;15.57;;;19.10;77.80;;;;;;2064682;28;20058;-85
2021/06/27 02:42:03;;;;;;;17.92;15.05;;;19.10;77.80;;;;;;2073205;28;20034;-83
2021/06/27 02:43:04;;;;;;;16.70;14.45;;;19.10;77.80;;;;;;2056687;28;20015;-83
2021/06/27 02:44:06;;;;;;;17.23;14.35;;;19.10;77.80;;;;;;2064871;28;20033;-83
2021/06/27 02:45:08;;;;;;;17.48;14.93;;;19.10;77.80;;;;;;2079203;28;20028;-83
2021/06/27 02:46:09;;;;;;;18.60;14.93;;;19.10;77.80;;;;;;2073136;28;20129;-83
2021/06/27 02:47:10;;;;;;;17.02;15.13;;;19.10;77.80;;;;;;2073339;28;20026;-83
2021/06/27 02:48:11;;;;;;;17.10;14.68;;;19.10;77.80;;;;;;2068621;28;20511;-84
2021/06/27 02:49:11;;;;;;;20.13;15.95;;;19.10;77.80;;;;;;2059714;28;20507;-83
2021/06/27 02:50:14;;;;;;;18.67;16.40;;;19.10;77.80;;;;;;2064630;28;20034;-84
2021/06/27 02:51:15;;;;;;;19.13;15.77;;;19.10;77.80;;;;;;2078632;28;20040;-83
2021/06/27 02:52:16;;;;;;;18.30;14.98;;;19.10;77.80;;;;;;2072519;28;20106;-83
2021/06/27 02:53:17;;;;;;;18.88;15.40;;;19.10;77.80;;;;;;2071991;28;20022;-83
2021/06/27 02:54:18;;;;;;;17.15;14.52;;;19.10;77.80;;;;;;2072337;28;20040;-83
2021/06/27 02:55:18;;;;;;;17.05;14.52;;;19.10;77.90;;;;;;2072776;28;20034;-83
2021/06/27 02:56:19;;;;;;;15.82;13.68;;;19.10;77.90;;;;;;2063255;28;20027;-83
2021/06/27 02:57:20;;;;;;;18.40;14.60;;;19.10;78.60;;;;;;2064701;28;20027;-83
2021/06/27 02:58:20;;;;;;;17.60;14.82;;;19.10;78.60;;;;;;2080446;28;20034;-83
2021/06/27 02:59:21;;;;;;;18.40;15.77;;;19.10;78.10;;;;;;2059264;28;20101;-84
2021/06/27 03:00:22;;;;;;;16.42;14.05;;;19.00;78.10;;;;;;2056583;28;20507;-84
2021/06/27 03:01:22;;;;;;;18.40;15.57;;;19.00;78.10;;;;;;2072396;28;20154;-84
2021/06/27 03:02:23;;;;;;;18.75;15.55;;;19.00;78.20;;;;;;2064582;28;20057;-84
2021/06/27 03:03:24;;;;;;;18.10;16.02;;;19.00;78.20;;;;;;2069905;28;20054;-84
2021/06/27 03:04:24;;;;;;;18.40;15.70;;;19.00;78.20;;;;;;2080645;28;20121;-83
2021/06/27 03:05:25;;;;;;;17.98;15.43;;;19.00;78.20;;;;;;2072696;28;20472;-84
2021/06/27 03:06:26;;;;;;;17.63;15.27;;;19.00;78.30;;;;;;2073334;28;20070;-84
2021/06/27 03:07:26;;;;;;;17.05;14.48;;;19.00;78.30;;;;;;2064987;28;20057;-83
2021/06/27 03:08:27;;;;;;;15.88;13.93;;;19.00;78.30;;;;;;2057167;28;20046;-83
2021/06/27 03:09:28;;;;;;;18.05;14.80;;;19.00;78.40;;;;;;2072023;28;20079;-84
2021/06/27 03:10:29;;;;;;;17.17;14.73;;;19.00;78.40;;;;;;2080220;28;20030;-84
2021/06/27 03:11:29;;;;;;;19.33;16.27;;;19.00;78.30;;;;;;2074762;28;20042;-84
2021/06/27 03:12:30;;;;;;;18.65;15.95;;;19.00;78.50;;;;;;2079932;28;20111;-83
2021/06/27 03:13:34;;;;;;;18.02;15.40;;;18.90;78.40;;;;;;2073629;28;20470;-84
2021/06/27 03:14:34;;;;;;;18.92;15.20;;;18.90;78.50;;;;;;2066056;28;20480;-84
2021/06/27 03:15:35;;;;;;;18.42;15.38;;;19.00;78.60;;;;;;2078372;28;20128;-84
2021/06/27 03:16:35;;;;;;;17.70;14.35;;;18.90;78.60;;;;;;2074150;28;20033;-83
2021/06/27 03:17:36;;;;;;;20.48;16.45;;;18.90;78.60;;;;;;2074148;28;20116;-84
2021/06/27 03:18:38;;;;;;;18.55;15.02;;;18.90;78.70;;;;;;2072428;28;20026;-84
2021/06/27 03:19:38;;;;;;;19.92;15.13;;;18.90;78.70;;;;;;2073180;28;20053;-83
2021/06/27 03:20:39;;;;;;;19.23;15.20;;;18.90;78.80;;;;;;2073727;28;20026;-83
2021/06/27 03:21:43;;;;;;;19.23;15.98;;;18.90;78.80;;;;;;2081828;28;20120;-84
2021/06/27 03:22:45;;;;;;;18.17;14.85;;;18.80;78.80;;;;;;2089676;28;20114;-83
2021/06/27 03:23:46;;;;;;;18.48;15.07;;;18.90;79.00;;;;;;2075530;28;20518;-83
2021/06/27 03:24:47;;;;;;;21.00;16.33;;;18.80;78.90;;;;;;2057934;28;20055;-83
2021/06/27 03:25:47;;;;;;;18.70;16.05;;;18.80;79.10;;;;;;2073759;28;20105;-83
2021/06/27 03:26:48;;;;;;;19.02;16.20;;;18.80;79.10;;;;;;2073789;28;20030;-83
2021/06/27 03:27:49;;;;;;;20.27;17.17;;;18.80;79.20;;;;;;2066035;28;20034;-83
2021/06/27 03:28:52;;;;;;;18.98;15.63;;;18.80;79.20;;;;;;2071922;28;20139;-84
2021/06/27 03:29:52;;;;;;;21.08;17.70;;;18.80;79.30;;;;;;2066292;28;20034;-84
2021/06/27 03:30:53;;;;;;;22.13;17.23;;;18.70;79.30;;;;;;2066201;28;20022;-84
2021/06/27 03:31:54;;;;;;;21.80;17.80;;;18.80;79.40;;;;;;2058766;28;20039;-84
2021/06/27 03:32:54;;;;;;;19.10;15.88;;;18.70;79.40;;;;;;2073021;28;20017;-83
2021/06/27 03:33:55;;;;;;;19.58;16.02;;;18.70;79.40;;;;;;2065961;28;20489;-83
2021/06/27 03:34:56;;;;;;;20.60;16.75;;;18.70;79.40;;;;;;2073899;28;20076;-83
2021/06/27 03:35:56;;;;;;;18.48;15.13;;;18.70;79.50;;;;;;2074402;28;20034;-83
2021/06/27 03:36:57;;;;;;;20.20;16.33;;;18.70;79.50;;;;;;2074070;28;20026;-83
2021/06/27 03:38:06;;;;;;;20.75;17.08;;;18.70;79.50;;;;;;2072741;28;20034;-84
2021/06/27 03:39:12;;;;;;;21.05;17.65;;;18.70;79.50;;;;;;2076858;28;20112;-83
2021/06/27 03:40:14;;;;;;;19.75;15.93;;;18.70;79.50;;;;;;2082648;28;20088;-83
2021/06/27 03:41:20;;;;;;;18.85;15.35;;;18.70;79.50;;;;;;2081449;28;20120;-83
2021/06/27 03:42:21;;;;;;;19.23;15.32;;;18.70;79.50;;;;;;2075318;28;20030;-83
2021/06/27 03:43:22;;;;;;;22.45;16.92;;;18.70;79.50;;;;;;2074820;28;20126;-83
2021/06/27 03:44:25;;;;;;;19.95;15.93;;;18.70;79.50;;;;;;2073909;28;20030;-83
2021/06/27 03:45:27;;;;;;;17.88;15.00;;;18.70;79.60;;;;;;2082279;28;20515;-83
2021/06/27 03:46:28;;;;;;;20.25;15.73;;;18.70;79.50;;;;;;2078929;28;20064;-83
2021/06/27 03:47:28;;;;;;;20.38;16.85;;;18.70;79.50;;;;;;2074282;28;20006;-82
2021/06/27 03:48:29;;;;;;;18.65;15.55;;;18.70;79.50;;;;;;2074214;28;20022;-83
2021/06/27 03:49:30;;;;;;;17.17;14.40;;;18.80;79.50;;;;;;2083143;28;20045;-83
2021/06/27 03:50:31;;;;;;;19.02;15.02;;;18.70;79.50;;;;;;2084372;28;20037;-83
2021/06/27 03:51:32;;;;;;;18.70;15.07;;;18.80;79.50;;;;;;2072544;28;20030;-83
2021/06/27 03:52:33;;;;;;;17.33;14.10;;;18.80;79.50;;;;;;2084814;28;20049;-82
2021/06/27 03:53:33;;;;;;;18.75;15.13;;;18.80;79.40;;;;;;2079611;28;20037;-84
2021/06/27 03:54:34;;;;;;;17.02;14.18;;;18.80;79.40;;;;;;2066276;28;20032;-84
2021/06/27 03:55:35;;;;;;;19.95;16.45;;;18.80;79.40;;;;;;2066651;28;20026;-84
2021/06/27 03:56:36;;;;;;;20.08;16.77;;;18.80;79.40;;;;;;2064665;28;20034;-84
2021/06/27 03:57:37;;;;;;;19.08;16.08;;;18.80;79.40;;;;;;2072017;28;20030;-83
2021/06/27 03:58:38;;;;;;;19.55;16.00;;;18.80;79.40;;;;;;2088097;28;20053;-83
2021/06/27 03:59:38;;;;;;;20.60;16.90;;;18.80;79.30;;;;;;2091454;28;20022;-83
2021/06/27 04:00:39;;;;;;;18.85;15.93;;;18.80;79.30;;;;;;2088085;28;20025;-83
2021/06/27 04:01:39;;;;;;;19.40;16.15;;;18.80;79.30;;;;;;2082979;28;20036;-83
2021/06/27 04:02:40;;;;;;;17.73;14.43;;;18.80;79.20;;;;;;2071124;28;20030;-84
2021/06/27 04:03:41;;;;;;;18.10;14.55;;;18.90;79.30;;;;;;2058442;28;20460;-83
2021/06/27 04:04:42;;;;;;;19.17;14.48;;;18.90;79.20;;;;;;2074192;28;20069;-84
2021/06/27 04:05:43;;;;;;;17.75;14.40;;;18.90;79.10;;;;;;2066311;28;20034;-84
2021/06/27 04:06:43;;;;;;;17.23;14.90;;;18.90;79.10;;;;;;2074143;28;20058;-84
2021/06/27 04:07:44;;;;;;;16.80;13.98;;;18.90;79.10;;;;;;2074337;28;20496;-84
2021/06/27 04:08:45;;;;;;;16.33;13.98;;;18.90;79.00;;;;;;2067032;28;20401;-83
2021/06/27 04:09:45;;;;;;;16.17;13.07;;;18.90;79.00;;;;;;2074046;28;20079;-84
2021/06/27 04:10:46;;;;;;;15.07;12.73;;;19.00;79.00;;;;;;2074009;28;20034;-83
2021/06/27 04:11:46;;;;;;;17.48;14.15;;;19.00;79.00;;;;;;2073502;28;20080;-83
2021/06/27 04:12:47;;;;;;;17.38;14.68;;;19.00;78.90;;;;;;2065844;28;20408;-84
2021/06/27 04:13:48;;;;;;;16.35;13.52;;;19.00;78.80;;;;;;2073957;28;20480;-83
2021/06/27 04:14:50;;;;;;;18.48;14.85;;;19.00;78.80;;;;;;2073987;28;20030;-83
2021/06/27 04:15:51;;;;;;;15.90;12.57;;;19.00;78.70;;;;;;2065904;28;20027;-83
2021/06/27 04:16:51;;;;;;;17.30;12.82;;;19.10;78.70;;;;;;2064753;28;20393;-83
2021/06/27 04:17:52;;;;;;;15.65;12.73;;;19.10;78.60;;;;;;2064398;28;20027;-83
2021/06/27 04:18:52;;;;;;;16.02;13.65;;;19.10;78.50;;;;;;2068332;28;20018;-83
2021/06/27 04:19:53;;;;;;;15.30;13.15;;;19.20;78.40;;;;;;2087961;28;20024;-83
2021/06/27 04:20:55;;;;;;;16.73;13.90;;;19.20;78.40;;;;;;2083886;28;20041;-83
2021/06/27 04:21:55;;;;;;;19.65;14.80;;;19.20;78.40;;;;;;2075977;28;20022;-83
2021/06/27 04:22:56;;;;;;;18.45;15.60;;;19.20;78.30;;;;;;2072716;28;20065;-84
2021/06/27 04:23:56;;;;;;;18.83;15.80;;;19.20;78.20;;;;;;2065716;28;20054;-84
2021/06/27 04:24:57;;;;;;;16.90;14.75;;;19.20;78.20;;;;;;2081646;28;20034;-83
2021/06/27 04:25:58;;;;;;;19.92;16.20;;;19.30;78.20;;;;;;2065565;28;20034;-83
2021/06/27 04:26:59;;;;;;;18.33;14.90;;;19.30;78.20;;;;;;2068056;28;20466;-84
2021/06/27 04:27:59;;;;;;;16.15;13.65;;;19.30;78.70;;;;;;2073798;28;20068;-84
2021/06/27 04:29:00;;;;;;;16.92;14.25;;;19.30;78.00;;;;;;2073780;28;20025;-82
2021/06/27 04:30:00;;;;;;;17.25;14.73;;;19.30;78.00;;;;;;2065572;28;20030;-83
2021/06/27 04:31:01;;;;;;;17.60;14.55;;;19.30;77.90;;;;;;2071280;28;20034;-83
2021/06/27 04:32:03;;;;;;;18.75;14.48;;;19.30;77.80;;;;;;2057316;28;20045;-83
2021/06/27 04:33:06;;;;;;;16.50;14.07;;;19.30;77.80;;;;;;2067186;28;20031;-84
2021/06/27 04:34:07;;;;;;;17.55;14.52;;;19.40;78.40;;;;;;2081620;28;20037;-84
2021/06/27 04:35:08;;;;;;;18.45;15.05;;;19.40;77.70;;;;;;2073341;28;20080;-84
2021/06/27 04:36:09;;;;;;;19.05;15.73;;;19.40;77.60;;;;;;2065219;28;20026;-83
2021/06/27 04:37:09;;;;;;;18.67;15.60;;;19.40;77.60;;;;;;2073078;28;20462;-83
2021/06/27 04:38:13;;;;;;;16.30;13.85;;;19.40;77.60;;;;;;2073140;28;20034;-83
2021/06/27 04:39:15;;;;;;;18.58;14.98;;;19.40;77.50;;;;;;2073121;28;20036;-83
2021/06/27 04:40:16;;;;;;;15.57;13.68;;;19.40;77.50;;;;;;2065557;28;20034;-84
2021/06/27 04:41:16;;;;;;;17.77;14.50;;;19.50;77.50;;;;;;2079449;28;20033;-83
2021/06/27 04:42:17;;;;;;;16.42;13.98;;;19.50;77.40;;;;;;2073580;28;20018;-83
2021/06/27 04:43:18;;;;;;;17.27;13.38;;;19.50;77.40;;;;;;2073367;28;20491;-83
2021/06/27 04:44:18;;;;;;;16.35;13.10;;;19.50;77.40;;;;;;2079150;28;20028;-83
2021/06/27 04:45:20;;;;;;;14.45;12.13;;;19.50;77.30;;;;;;2081426;28;20032;-82
2021/06/27 04:46:20;;;;;;;14.43;12.32;;;19.60;77.30;;;;;;2073578;28;20034;-83
2021/06/27 04:47:21;;;;;;;16.15;13.60;;;19.60;77.20;;;;;;2063987;28;20034;-83
2021/06/27 04:48:22;;;;;;;15.35;12.73;;;19.60;77.10;;;;;;2048069;28;20078;-83
2021/06/27 04:49:22;;;;;;;15.40;12.80;;;19.60;77.00;;;;;;2064762;28;20534;-83
2021/06/27 04:50:23;;;;;;;15.07;12.35;;;19.60;76.90;;;;;;2072416;28;20468;-83
2021/06/27 04:51:24;;;;;;;14.82;12.25;;;19.70;76.90;;;;;;2059867;28;20027;-83
2021/06/27 04:52:25;;;;;;;13.18;11.32;;;19.70;76.80;;;;;;2066411;28;20500;-83
2021/06/27 04:53:26;;;;;;;14.18;12.18;;;19.70;76.70;;;;;;2073285;28;20026;-83
2021/06/27 04:54:26;;;;;;;13.52;11.70;;;19.80;76.60;;;;;;2065532;28;20030;-84
2021/06/27 04:55:27;;;;;;;16.35;12.45;;;19.80;77.00;;;;;;2065134;28;20057;-84
2021/06/27 04:56:28;;;;;;;15.02;12.05;;;19.80;76.20;;;;;;2071017;28;20033;-84
2021/06/27 04:57:28;;;;;;;13.88;12.00;;;19.90;76.20;;;;;;2073570;28;20026;-83
2021/06/27 04:58:29;;;;;;;14.20;11.80;;;19.90;76.00;;;;;;2073291;28;20483;-84
2021/06/27 04:59:30;;;;;;;14.77;12.45;;;20.00;75.90;;;;;;2074103;28;20400;-84
2021/06/27 05:00:31;;;;;;;14.10;11.80;;;20.00;75.70;;;;;;2074997;28;20482;-83
2021/06/27 05:01:31;;;;;;;15.10;12.63;;;20.10;75.60;;;;;;2065206;28;20061;-84
2021/06/27 05:02:32;;;;;;;14.10;12.07;;;20.10;75.50;;;;;;2073322;28;20125;-84
2021/06/27 05:03:33;;;;;;;13.82;11.27;;;20.10;76.00;;;;;;2073287;28;20068;-83
2021/06/27 05:04:33;;;;;;;14.25;12.43;;;20.10;75.30;;;;;;2072139;28;20030;-84
2021/06/27 05:05:34;;;;;;;13.63;11.63;;;20.20;75.20;;;;;;2073082;28;20037;-84
2021/06/27 05:06:35;;;;;;;15.90;12.77;;;20.20;75.20;;;;;;2062013;28;20082;-84
2021/06/27 05:07:35;;;;;;;16.45;12.82;;;20.20;75.00;;;;;;2068716;28;20068;-83
2021/06/27 05:08:36;;;;;;;13.82;11.90;;;20.20;75.00;;;;;;2073306;28;20397;-84
2021/06/27 05:09:37;;;;;;;13.55;11.25;;;20.20;75.00;;;;;;2073289;28;20120;-83
2021/06/27 05:10:37;;;;;;;16.60;12.82;;;20.20;75.00;;;;;;2069688;28;20054;-84
2021/06/27 05:11:38;;;;;;;15.90;12.80;;;20.20;74.90;;;;;;2072919;28;20180;-84